Time;durP1;ratioP1;P1;durP2;ratioP2;P2;SDS_P1;SDS_P2;PMS_P1;PMS_P2;Temp;Humidity;BMP_temperature;BMP_pressure;BME280_temperature;BME280_humidity;BME280_pressure;Samples;Min_cycle;Max_cycle;Signal;HPM_P1;HPM_P2
2021/11/05 00:00:33;;;;;;;7.28;5.20;;;8.20;99.90;;;;;;4962940;28;20146;-65
2021/11/05 00:03:00;;;;;;;6.53;5.30;;;8.20;99.90;;;;;;4953026;28;20461;-66
2021/11/05 00:05:29;;;;;;;7.32;5.80;;;8.20;99.90;;;;;;4952961;28;20038;-64
2021/11/05 00:07:56;;;;;;;7.15;5.90;;;8.20;99.90;;;;;;4954072;28;20655;-64
2021/11/05 00:10:24;;;;;;;6.78;5.07;;;8.20;99.90;;;;;;4955073;28;20039;-64
2021/11/05 00:12:52;;;;;;;8.93;5.43;;;8.20;99.90;;;;;;4956539;28;20090;-64
2021/11/05 00:15:20;;;;;;;6.05;5.10;;;8.20;99.90;;;;;;4972804;28;20042;-67
2021/11/05 00:17:46;;;;;;;6.40;4.75;;;8.20;99.90;;;;;;4974443;28;20046;-64
2021/11/05 00:20:19;;;;;;;5.38;4.88;;;8.20;99.90;;;;;;4980776;28;20125;-66
2021/11/05 00:22:46;;;;;;;5.53;4.35;;;8.20;99.90;;;;;;4975636;28;20153;-64
2021/11/05 00:25:13;;;;;;;5.78;5.10;;;8.20;99.90;;;;;;4993073;28;20122;-63
2021/11/05 00:27:40;;;;;;;5.20;4.05;;;8.20;99.90;;;;;;4980362;28;20069;-67
2021/11/05 00:30:10;;;;;;;6.90;4.43;;;8.20;99.90;;;;;;4971808;28;20074;-65
2021/11/05 00:32:38;;;;;;;5.13;4.18;;;8.20;99.90;;;;;;4973357;28;20081;-64
2021/11/05 00:35:09;;;;;;;5.95;4.43;;;8.20;99.90;;;;;;4977667;28;20133;-63
2021/11/05 00:37:36;;;;;;;5.15;4.53;;;8.20;99.90;;;;;;4972752;28;20077;-65
2021/11/05 00:40:06;;;;;;;5.75;4.93;;;8.20;99.90;;;;;;4980227;28;20042;-65
2021/11/05 00:42:33;;;;;;;5.30;4.38;;;8.20;99.90;;;;;;4973154;28;20054;-64
2021/11/05 00:45:00;;;;;;;5.15;4.45;;;8.20;99.90;;;;;;4972167;28;20176;-64
2021/11/05 00:47:27;;;;;;;6.55;4.50;;;8.20;99.90;;;;;;4972396;28;20058;-66
2021/11/05 00:49:54;;;;;;;7.72;5.00;;;8.20;99.90;;;;;;4977169;28;20139;-64
2021/11/05 00:52:20;;;;;;;8.65;5.60;;;8.20;99.90;;;;;;4975331;28;20697;-68
2021/11/05 00:54:47;;;;;;;6.80;5.13;;;8.20;99.90;;;;;;4961614;28;20043;-65
2021/11/05 00:57:14;;;;;;;7.15;4.00;;;8.20;99.90;;;;;;4953301;28;20138;-64
2021/11/05 00:59:41;;;;;;;5.15;4.65;;;8.20;99.90;;;;;;4952265;28;20109;-68
2021/11/05 01:02:09;;;;;;;6.18;3.53;;;8.20;99.90;;;;;;4953815;28;20090;-66
2021/11/05 01:04:36;;;;;;;4.10;3.70;;;8.20;99.90;;;;;;4954073;28;20055;-64
2021/11/05 01:07:03;;;;;;;4.28;3.30;;;8.20;99.90;;;;;;4956992;28;20058;-67
2021/11/05 01:09:30;;;;;;;3.53;2.92;;;8.20;99.90;;;;;;4955202;28;20061;-64
2021/11/05 01:11:57;;;;;;;3.58;3.28;;;8.20;99.90;;;;;;4949586;28;20077;-64
2021/11/05 01:14:24;;;;;;;3.22;2.75;;;8.20;99.90;;;;;;4969708;28;20134;-67
2021/11/05 01:16:51;;;;;;;4.60;2.78;;;8.20;99.90;;;;;;4954345;28;20051;-64
2021/11/05 01:19:18;;;;;;;3.95;2.55;;;8.30;99.90;;;;;;4951044;28;20070;-66
2021/11/05 01:21:45;;;;;;;3.17;2.40;;;8.20;99.90;;;;;;4955656;28;20113;-66
2021/11/05 01:24:12;;;;;;;3.83;2.65;;;8.20;99.90;;;;;;4952906;28;20049;-63
2021/11/05 01:26:39;;;;;;;3.45;2.30;;;8.20;99.90;;;;;;4955501;28;20075;-64
2021/11/05 01:29:09;;;;;;;3.40;2.67;;;8.20;99.90;;;;;;4952613;28;20047;-65
2021/11/05 01:31:36;;;;;;;4.97;2.83;;;8.20;99.90;;;;;;4952143;28;20050;-66
2021/11/05 01:34:05;;;;;;;2.80;2.30;;;8.20;99.90;;;;;;4954631;28;20063;-65
2021/11/05 01:36:32;;;;;;;2.83;2.42;;;8.20;99.90;;;;;;4952409;28;21018;-64
2021/11/05 01:38:59;;;;;;;4.97;3.35;;;8.20;99.90;;;;;;4955244;28;20146;-64
2021/11/05 01:41:26;;;;;;;3.65;2.75;;;8.20;99.90;;;;;;4952154;28;20086;-65
2021/11/05 01:43:53;;;;;;;3.60;2.25;;;8.20;99.90;;;;;;4953725;28;20162;-66
2021/11/05 01:46:20;;;;;;;3.65;2.47;;;8.20;99.90;;;;;;4952563;28;20073;-65
2021/11/05 01:48:48;;;;;;;3.47;2.33;;;8.20;99.90;;;;;;4955543;28;20182;-63
2021/11/05 01:51:16;;;;;;;4.78;2.40;;;8.20;99.90;;;;;;4952082;28;20148;-65
2021/11/05 01:53:45;;;;;;;2.63;2.17;;;8.20;99.90;;;;;;4953524;28;20130;-64
2021/11/05 01:56:12;;;;;;;3.10;2.22;;;8.20;99.90;;;;;;4955105;28;20047;-67
2021/11/05 01:58:39;;;;;;;8.10;3.85;;;8.20;99.90;;;;;;4949281;28;20063;-64
2021/11/05 02:01:06;;;;;;;2.35;1.95;;;8.20;99.90;;;;;;4952044;28;20051;-66
2021/11/05 02:03:34;;;;;;;2.53;1.90;;;8.20;99.90;;;;;;4953142;28;20054;-65
2021/11/05 02:06:01;;;;;;;5.20;3.42;;;8.20;99.90;;;;;;4948688;28;20120;-64
2021/11/05 02:08:28;;;;;;;2.80;1.63;;;8.20;99.90;;;;;;4951940;28;20039;-66
2021/11/05 02:10:56;;;;;;;4.90;2.53;;;8.20;99.90;;;;;;4965972;28;20247;-66
2021/11/05 02:13:26;;;;;;;3.03;2.50;;;8.20;99.90;;;;;;4975008;28;20635;-64
2021/11/05 02:15:56;;;;;;;4.60;2.03;;;8.20;99.90;;;;;;4973533;28;20043;-64
2021/11/05 02:18:24;;;;;;;4.13;2.42;;;8.20;99.90;;;;;;4971584;28;20061;-65
2021/11/05 02:21:02;;;;;;;4.85;2.28;;;8.20;99.90;;;;;;4953142;28;20489;-66
2021/11/05 02:23:29;;;;;;;4.05;2.10;;;8.10;99.90;;;;;;4955350;28;20110;-65
2021/11/05 02:25:56;;;;;;;4.40;2.85;;;8.20;99.90;;;;;;4953491;28;20164;-67
2021/11/05 02:28:23;;;;;;;2.95;2.22;;;8.20;99.90;;;;;;4955328;28;20058;-64
2021/11/05 02:30:50;;;;;;;3.35;2.00;;;8.20;99.90;;;;;;4955263;28;20091;-64
2021/11/05 02:33:17;;;;;;;1.90;1.70;;;8.20;99.90;;;;;;4949355;28;20144;-66
2021/11/05 02:35:45;;;;;;;4.13;2.22;;;8.20;99.90;;;;;;4962502;28;20463;-65
2021/11/05 02:38:13;;;;;;;2.25;1.75;;;8.20;99.90;;;;;;4965907;28;20058;-64
2021/11/05 02:40:40;;;;;;;5.30;2.30;;;8.20;99.90;;;;;;4952977;28;20085;-65
2021/11/05 02:43:07;;;;;;;3.95;2.00;;;8.20;99.90;;;;;;4954000;28;20070;-65
2021/11/05 02:45:34;;;;;;;4.80;1.63;;;8.20;99.90;;;;;;4955676;28;20073;-65
2021/11/05 02:48:03;;;;;;;2.40;1.88;;;8.20;99.90;;;;;;4972346;28;20101;-65
2021/11/05 02:50:30;;;;;;;2.92;2.40;;;8.20;99.90;;;;;;4968844;28;20118;-64
2021/11/05 02:52:57;;;;;;;3.20;1.95;;;8.20;99.90;;;;;;4953751;28;20047;-65
2021/11/05 02:55:24;;;;;;;2.20;2.00;;;8.20;99.90;;;;;;4967954;28;20043;-65
2021/11/05 02:57:50;;;;;;;3.45;2.08;;;8.20;99.90;;;;;;4970636;28;20153;-67
2021/11/05 03:00:17;;;;;;;2.17;1.65;;;8.20;99.90;;;;;;4958318;28;20361;-64
2021/11/05 03:02:44;;;;;;;2.72;1.90;;;8.20;99.90;;;;;;4943704;28;20413;-65
2021/11/05 03:05:12;;;;;;;3.28;2.05;;;8.20;99.90;;;;;;4943920;28;20660;-66
2021/11/05 03:07:40;;;;;;;3.70;2.22;;;8.20;99.90;;;;;;4942862;28;20421;-65
2021/11/05 03:10:08;;;;;;;2.95;1.83;;;8.20;99.90;;;;;;4942455;28;20069;-65
2021/11/05 03:12:35;;;;;;;6.35;2.92;;;8.20;99.90;;;;;;4961782;28;20066;-64
2021/11/05 03:15:03;;;;;;;5.28;2.83;;;8.20;99.90;;;;;;4971001;28;20224;-64
2021/11/05 03:17:31;;;;;;;5.93;1.95;;;8.20;99.90;;;;;;4976712;28;20058;-65
2021/11/05 03:19:58;;;;;;;3.28;2.10;;;8.20;99.90;;;;;;4970425;28;20538;-65
2021/11/05 03:22:25;;;;;;;4.55;3.28;;;8.20;99.90;;;;;;4970919;28;20147;-65
2021/11/05 03:24:52;;;;;;;2.97;2.05;;;8.20;99.90;;;;;;4972920;28;20108;-65
2021/11/05 03:27:19;;;;;;;4.03;1.90;;;8.20;99.90;;;;;;4969503;28;20445;-64
2021/11/05 03:29:46;;;;;;;3.40;1.70;;;8.20;99.90;;;;;;4972572;28;20046;-68
2021/11/05 03:32:13;;;;;;;2.95;2.20;;;8.20;99.90;;;;;;4971881;28;20142;-64
2021/11/05 03:34:40;;;;;;;6.63;2.70;;;8.20;99.90;;;;;;4969253;28;20050;-64
2021/11/05 03:37:07;;;;;;;2.08;1.88;;;8.20;99.90;;;;;;4956157;28;20133;-64
2021/11/05 03:39:34;;;;;;;2.70;1.98;;;8.20;99.90;;;;;;4952602;28;20070;-65
2021/11/05 03:42:02;;;;;;;2.92;1.92;;;8.20;99.90;;;;;;4952261;28;20143;-65
2021/11/05 03:44:29;;;;;;;4.38;2.13;;;8.20;99.90;;;;;;4951280;28;20059;-65
2021/11/05 03:46:56;;;;;;;3.80;2.60;;;8.20;99.90;;;;;;4952223;28;20078;-64
2021/11/05 03:49:24;;;;;;;3.45;2.40;;;8.20;99.90;;;;;;4948139;28;20067;-64
2021/11/05 03:51:51;;;;;;;5.13;2.50;;;8.20;99.90;;;;;;4962459;28;20042;-70
2021/11/05 03:54:18;;;;;;;3.55;2.25;;;8.30;99.90;;;;;;4963161;28;20484;-66
2021/11/05 03:56:45;;;;;;;4.15;2.05;;;8.30;99.90;;;;;;4961406;28;20078;-65
2021/11/05 03:59:12;;;;;;;4.63;2.63;;;8.30;99.90;;;;;;4971544;28;20828;-64
2021/11/05 04:01:39;;;;;;;3.03;1.80;;;8.30;99.90;;;;;;4971108;28;20121;-65
2021/11/05 04:04:05;;;;;;;3.80;1.90;;;8.30;99.90;;;;;;4971880;28;20086;-66
2021/11/05 04:06:32;;;;;;;3.47;2.00;;;8.30;99.90;;;;;;4971172;28;20051;-66
2021/11/05 04:08:59;;;;;;;7.85;2.15;;;8.40;99.90;;;;;;4968897;28;20051;-65
2021/11/05 04:11:27;;;;;;;5.00;2.65;;;8.40;99.90;;;;;;4971000;28;20054;-66
2021/11/05 04:13:54;;;;;;;6.43;2.30;;;8.40;99.90;;;;;;4972598;28;20045;-65
2021/11/05 04:16:21;;;;;;;6.88;2.35;;;8.40;99.90;;;;;;4970174;28;20118;-65
2021/11/05 04:18:48;;;;;;;7.75;3.00;;;8.40;99.90;;;;;;4971300;28;20113;-69
2021/11/05 04:21:15;;;;;;;6.03;3.47;;;8.40;99.90;;;;;;4967011;28;20149;-65
2021/11/05 04:23:43;;;;;;;6.32;2.20;;;8.40;99.90;;;;;;4970924;28;20081;-66
2021/11/05 04:26:10;;;;;;;7.05;1.92;;;8.40;99.90;;;;;;4975012;28;20120;-67
2021/11/05 04:28:37;;;;;;;8.15;1.92;;;8.40;99.90;;;;;;4974100;28;20061;-68
2021/11/05 04:31:04;;;;;;;4.25;1.80;;;8.40;99.90;;;;;;4974532;28;20130;-67
2021/11/05 04:33:31;;;;;;;5.95;1.92;;;8.40;99.90;;;;;;4973664;28;20527;-65
2021/11/05 04:36:00;;;;;;;3.40;1.73;;;8.40;99.90;;;;;;4973364;28;20415;-67
2021/11/05 04:38:28;;;;;;;4.22;2.08;;;8.40;99.90;;;;;;4974474;28;20219;-66
2021/11/05 04:40:55;;;;;;;7.35;2.35;;;8.40;99.90;;;;;;4974468;28;20484;-67
2021/11/05 04:43:23;;;;;;;6.35;2.20;;;8.40;99.90;;;;;;4968746;28;20641;-70
2021/11/05 04:45:50;;;;;;;3.80;1.85;;;8.40;99.90;;;;;;4976679;28;20723;-65
2021/11/05 04:48:18;;;;;;;10.25;3.92;;;8.40;99.90;;;;;;4972195;28;20070;-68
2021/11/05 04:50:45;;;;;;;5.78;2.78;;;8.40;99.90;;;;;;4975000;28;21111;-66
2021/11/05 04:53:12;;;;;;;4.10;2.05;;;8.40;99.90;;;;;;4973233;28;20047;-65
2021/11/05 04:55:39;;;;;;;5.90;2.22;;;8.40;99.90;;;;;;4972878;28;20050;-66
2021/11/05 04:58:07;;;;;;;5.18;2.60;;;8.40;99.90;;;;;;4975776;28;20047;-66
2021/11/05 05:00:34;;;;;;;10.65;2.80;;;8.40;99.90;;;;;;4961285;28;20150;-68
2021/11/05 05:03:02;;;;;;;10.27;2.78;;;8.30;99.90;;;;;;4951418;28;20047;-65
2021/11/05 05:05:29;;;;;;;2.10;1.90;;;8.30;99.90;;;;;;4952728;28;20046;-65
2021/11/05 05:07:57;;;;;;;3.90;1.77;;;8.40;99.90;;;;;;4952537;28;20082;-68
2021/11/05 05:10:25;;;;;;;2.55;1.58;;;8.40;99.90;;;;;;4965132;28;20050;-65
2021/11/05 05:12:53;;;;;;;5.60;4.10;;;8.30;99.90;;;;;;4974312;28;20170;-65
2021/11/05 05:15:20;;;;;;;4.53;4.03;;;8.30;99.90;;;;;;4971667;28;20104;-66
2021/11/05 05:17:47;;;;;;;9.02;2.95;;;8.30;99.90;;;;;;4972252;28;20047;-66
2021/11/05 05:20:16;;;;;;;5.75;2.13;;;8.30;99.90;;;;;;4972577;28;20039;-66
2021/11/05 05:22:44;;;;;;;5.97;2.50;;;8.40;99.90;;;;;;4971768;28;20066;-65
2021/11/05 05:25:13;;;;;;;3.65;1.98;;;8.40;99.90;;;;;;4968676;28;20077;-68
2021/11/05 05:27:42;;;;;;;6.28;2.00;;;8.40;99.90;;;;;;4977140;28;20046;-66
2021/11/05 05:30:14;;;;;;;8.68;2.38;;;8.30;99.90;;;;;;4976298;28;20078;-65
2021/11/05 05:32:47;;;;;;;2.03;1.48;;;8.30;99.90;;;;;;4972640;28;20054;-64
2021/11/05 05:35:15;;;;;;;5.78;1.65;;;8.30;99.90;;;;;;4978050;28;20053;-65
2021/11/05 05:37:42;;;;;;;6.13;2.55;;;8.30;99.90;;;;;;4969085;28;20472;-66
2021/11/05 05:40:11;;;;;;;10.48;2.90;;;8.30;99.90;;;;;;4972919;28;20127;-67
2021/11/05 05:42:38;;;;;;;5.57;1.73;;;8.40;99.90;;;;;;4971222;28;20116;-69
2021/11/05 05:45:06;;;;;;;6.82;2.28;;;8.40;99.90;;;;;;4972792;28;20046;-69
2021/11/05 05:47:33;;;;;;;3.25;1.98;;;8.30;99.90;;;;;;4975310;28;20092;-65
2021/11/05 05:50:00;;;;;;;3.33;2.10;;;8.30;99.90;;;;;;4973184;28;20192;-67
2021/11/05 05:52:27;;;;;;;6.82;2.22;;;8.30;99.90;;;;;;4977386;28;20046;-66
2021/11/05 05:54:54;;;;;;;3.60;2.10;;;8.30;99.90;;;;;;4980660;28;20066;-65
2021/11/05 05:57:20;;;;;;;4.10;2.10;;;8.30;99.90;;;;;;4969842;28;20149;-66
2021/11/05 05:59:47;;;;;;;2.85;1.13;;;8.30;99.90;;;;;;4971470;28;20086;-66
2021/11/05 06:02:15;;;;;;;3.15;1.80;;;8.30;99.90;;;;;;4973945;28;20062;-66
2021/11/05 06:04:42;;;;;;;3.35;1.40;;;8.30;99.90;;;;;;4974081;28;20405;-66
2021/11/05 06:07:09;;;;;;;4.95;1.45;;;8.30;99.90;;;;;;4971151;28;20433;-65
2021/11/05 06:09:36;;;;;;;2.85;1.67;;;8.30;99.90;;;;;;4971989;28;20544;-67
2021/11/05 06:12:03;;;;;;;3.83;1.80;;;8.30;99.90;;;;;;4970494;28;20085;-66
2021/11/05 06:14:30;;;;;;;3.00;1.42;;;8.30;99.90;;;;;;4972573;28;21277;-65
2021/11/05 06:16:57;;;;;;;4.57;1.80;;;8.30;99.90;;;;;;4972081;28;20097;-67
2021/11/05 06:19:26;;;;;;;4.75;1.27;;;8.30;99.90;;;;;;4968292;28;20074;-66
2021/11/05 06:21:53;;;;;;;3.08;1.45;;;8.30;99.90;;;;;;4973763;28;20042;-65
2021/11/05 06:24:20;;;;;;;6.05;2.22;;;8.30;99.90;;;;;;4972964;28;20066;-67
2021/11/05 06:26:47;;;;;;;4.65;1.60;;;8.30;99.90;;;;;;4972222;28;20137;-64
2021/11/05 06:29:14;;;;;;;5.65;3.78;;;8.30;99.90;;;;;;4970360;28;20073;-67
2021/11/05 06:31:42;;;;;;;4.50;1.33;;;8.30;99.90;;;;;;4965073;28;20769;-65
2021/11/05 06:34:09;;;;;;;6.72;2.47;;;8.30;99.90;;;;;;4970461;28;20140;-65
2021/11/05 06:36:36;;;;;;;3.10;1.23;;;8.30;99.90;;;;;;4952514;28;20637;-66
2021/11/05 06:39:04;;;;;;;4.30;1.98;;;8.20;99.90;;;;;;4949169;28;20118;-67
2021/11/05 06:41:31;;;;;;;3.75;1.38;;;8.20;99.90;;;;;;4968036;28;20057;-66
2021/11/05 06:43:59;;;;;;;3.30;1.20;;;8.20;99.90;;;;;;4971087;28;20141;-66
2021/11/05 06:46:26;;;;;;;3.40;1.52;;;8.20;99.90;;;;;;4968869;28;20058;-67
2021/11/05 06:48:53;;;;;;;1.85;1.50;;;8.20;99.90;;;;;;4971431;28;20138;-65
2021/11/05 06:51:21;;;;;;;2.90;1.40;;;8.20;99.90;;;;;;4965904;28;20550;-68
2021/11/05 06:53:47;;;;;;;3.30;1.10;;;8.20;99.90;;;;;;4966401;28;20429;-65
2021/11/05 06:56:14;;;;;;;4.03;1.42;;;8.20;99.90;;;;;;4970320;28;20043;-67
2021/11/05 06:58:44;;;;;;;5.00;2.22;;;8.10;99.90;;;;;;4967537;28;20071;-65
2021/11/05 07:01:11;;;;;;;5.43;2.00;;;8.20;99.90;;;;;;4966024;28;20180;-69
2021/11/05 07:03:38;;;;;;;4.70;2.20;;;8.20;99.90;;;;;;4974824;28;20089;-65
2021/11/05 07:06:05;;;;;;;6.72;2.70;;;8.20;99.90;;;;;;4968095;28;20214;-66
2021/11/05 07:08:32;;;;;;;3.40;2.92;;;8.20;99.90;;;;;;4969279;28;20063;-67
2021/11/05 07:11:01;;;;;;;3.13;2.60;;;8.20;99.90;;;;;;4967060;28;20038;-67
2021/11/05 07:13:28;;;;;;;6.65;3.28;;;8.20;99.90;;;;;;4966726;28;20066;-69
2021/11/05 07:15:55;;;;;;;6.68;3.95;;;8.20;99.90;;;;;;4979046;28;20180;-68
2021/11/05 07:18:22;;;;;;;6.15;3.85;;;8.20;99.90;;;;;;4945569;28;20657;-67
2021/11/05 07:20:50;;;;;;;9.48;4.10;;;8.20;99.90;;;;;;4948975;28;20062;-67
2021/11/05 07:23:19;;;;;;;9.73;4.20;;;8.20;99.90;;;;;;4965167;28;20130;-70
2021/11/05 07:25:46;;;;;;;6.25;3.65;;;8.10;99.90;;;;;;4966981;28;20137;-67
2021/11/05 07:28:13;;;;;;;10.60;3.85;;;8.10;99.90;;;;;;4966979;28;20531;-66
2021/11/05 07:30:40;;;;;;;7.93;3.25;;;8.10;99.90;;;;;;4969551;28;20046;-67
2021/11/05 07:33:07;;;;;;;9.13;4.07;;;8.00;99.90;;;;;;4966237;28;20110;-66
2021/11/05 07:35:34;;;;;;;4.35;3.00;;;8.00;99.90;;;;;;4966896;28;20046;-67
2021/11/05 07:38:02;;;;;;;13.18;4.90;;;8.00;99.90;;;;;;4971089;28;20489;-68
2021/11/05 07:40:31;;;;;;;7.70;3.45;;;8.00;99.90;;;;;;4970563;28;20047;-66
2021/11/05 07:42:58;;;;;;;10.98;5.00;;;7.90;99.90;;;;;;4986436;28;20079;-66
2021/11/05 07:45:25;;;;;;;16.73;5.32;;;7.90;99.90;;;;;;4968956;28;20043;-69
2021/11/05 07:47:56;;;;;;;9.43;3.70;;;7.90;99.90;;;;;;4968886;28;20038;-67
2021/11/05 07:50:25;;;;;;;8.27;3.80;;;7.90;99.90;;;;;;4970815;28;20042;-67
2021/11/05 07:52:53;;;;;;;10.10;4.27;;;7.80;99.90;;;;;;4966961;28;20090;-68
2021/11/05 07:55:20;;;;;;;11.43;4.47;;;7.80;99.90;;;;;;4967870;28;20082;-69
2021/11/05 07:57:47;;;;;;;5.82;3.33;;;7.70;99.90;;;;;;4975319;28;20104;-67
2021/11/05 08:00:15;;;;;;;6.47;4.20;;;7.70;99.90;;;;;;4961859;28;20142;-67
2021/11/05 08:02:43;;;;;;;5.85;4.55;;;7.70;99.90;;;;;;4952588;28;20097;-66
2021/11/05 08:05:10;;;;;;;8.82;4.70;;;7.70;99.90;;;;;;4957796;28;20038;-66
2021/11/05 08:07:38;;;;;;;9.85;6.18;;;7.70;99.90;;;;;;4953436;28;20749;-71
2021/11/05 08:10:07;;;;;;;9.02;5.50;;;7.70;99.90;;;;;;4956485;28;20063;-69
2021/11/05 08:12:34;;;;;;;7.65;4.40;;;7.70;99.90;;;;;;4954873;28;20245;-67
2021/11/05 08:15:01;;;;;;;17.00;5.30;;;7.60;99.90;;;;;;4969913;28;20136;-71
2021/11/05 08:17:28;;;;;;;5.53;4.47;;;7.60;99.90;;;;;;4970907;28;20100;-67
2021/11/05 08:19:55;;;;;;;8.25;5.15;;;7.60;99.90;;;;;;4972948;28;20050;-68
2021/11/05 08:22:22;;;;;;;5.75;4.28;;;7.50;99.90;;;;;;4973374;28;20042;-66
2021/11/05 08:24:52;;;;;;;10.15;4.65;;;7.50;99.90;;;;;;4979119;28;20145;-66
2021/11/05 08:27:19;;;;;;;5.83;4.00;;;7.50;99.90;;;;;;4968970;28;20118;-69
2021/11/05 08:29:47;;;;;;;9.80;3.85;;;7.50;99.90;;;;;;4965928;28;20293;-68
2021/11/05 08:32:14;;;;;;;4.65;3.42;;;7.40;99.90;;;;;;4948053;28;20063;-66
2021/11/05 08:34:41;;;;;;;7.70;4.05;;;7.40;99.90;;;;;;4964315;28;20161;-70
2021/11/05 08:37:10;;;;;;;3.67;3.08;;;7.40;99.90;;;;;;4972470;28;20046;-66
2021/11/05 08:39:37;;;;;;;6.20;3.50;;;7.30;99.90;;;;;;4971986;28;20146;-70
2021/11/05 08:42:05;;;;;;;5.30;3.65;;;7.40;99.90;;;;;;4971217;28;20123;-67
2021/11/05 08:44:32;;;;;;;8.82;2.67;;;7.30;99.90;;;;;;4973090;28;20046;-66
2021/11/05 08:47:00;;;;;;;6.25;3.70;;;7.30;99.90;;;;;;4972294;28;20055;-66
2021/11/05 08:49:27;;;;;;;7.50;4.43;;;7.20;99.90;;;;;;4970281;28;20061;-69
2021/11/05 08:51:55;;;;;;;6.32;3.95;;;7.20;99.90;;;;;;4974568;28;20077;-68
2021/11/05 08:54:22;;;;;;;6.55;4.28;;;7.20;99.90;;;;;;4971178;28;20177;-68
2021/11/05 08:56:50;;;;;;;7.13;4.70;;;7.20;99.90;;;;;;4969098;28;20369;-66
2021/11/05 08:59:19;;;;;;;10.13;5.35;;;7.20;99.90;;;;;;4973556;28;20078;-66
2021/11/05 09:01:46;;;;;;;7.32;3.58;;;7.20;99.90;;;;;;4969997;28;20157;-69
2021/11/05 09:04:14;;;;;;;5.90;2.72;;;7.20;99.90;;;;;;4985838;28;20945;-69
2021/11/05 09:06:42;;;;;;;8.02;3.20;;;7.20;99.90;;;;;;4973456;28;20081;-66
2021/11/05 09:09:09;;;;;;;8.50;2.67;;;7.30;99.90;;;;;;4971252;28;20235;-66
2021/11/05 09:11:36;;;;;;;5.10;2.28;;;7.30;99.90;;;;;;4971385;28;20054;-71
2021/11/05 09:14:04;;;;;;;2.95;2.55;;;7.30;99.90;;;;;;4974403;28;20078;-66
2021/11/05 09:16:31;;;;;;;3.17;2.85;;;7.30;99.90;;;;;;4970601;28;20053;-67
2021/11/05 09:19:02;;;;;;;2.65;1.77;;;7.40;99.90;;;;;;4973469;28;20039;-68
2021/11/05 09:21:31;;;;;;;7.25;2.20;;;7.30;99.90;;;;;;4950550;28;20154;-70
2021/11/05 09:23:59;;;;;;;4.90;2.42;;;7.30;99.90;;;;;;4953885;28;20148;-67
2021/11/05 09:26:27;;;;;;;2.03;1.83;;;7.30;99.90;;;;;;4953472;28;20051;-67
2021/11/05 09:28:54;;;;;;;3.38;2.05;;;7.40;99.90;;;;;;4954800;28;20517;-68
2021/11/05 09:31:22;;;;;;;1.98;1.40;;;7.40;99.90;;;;;;4949557;28;20067;-69
2021/11/05 09:33:50;;;;;;;4.60;1.20;;;7.40;99.90;;;;;;4954905;28;20047;-66
2021/11/05 09:36:17;;;;;;;4.25;2.35;;;7.40;99.90;;;;;;4955428;28;20111;-67
2021/11/05 09:38:45;;;;;;;3.55;1.83;;;7.40;99.90;;;;;;4952925;28;20043;-65
2021/11/05 09:41:12;;;;;;;3.63;2.13;;;7.40;99.90;;;;;;4950537;28;20049;-68
2021/11/05 09:43:41;;;;;;;2.05;1.50;;;7.50;99.90;;;;;;4954112;28;20411;-66
2021/11/05 09:46:09;;;;;;;4.30;1.45;;;7.50;99.90;;;;;;4953769;28;20102;-66
2021/11/05 09:48:39;;;;;;;4.43;1.48;;;7.40;99.90;;;;;;4952493;28;20126;-68
2021/11/05 09:51:09;;;;;;;2.15;1.65;;;7.40;99.90;;;;;;4965039;28;20074;-67
2021/11/05 09:53:38;;;;;;;2.92;1.45;;;7.50;99.90;;;;;;4974038;28;20045;-66
2021/11/05 09:56:08;;;;;;;6.57;1.95;;;7.40;99.90;;;;;;4971066;28;20559;-70
2021/11/05 09:58:41;;;;;;;5.13;1.88;;;7.40;99.90;;;;;;4974346;28;20494;-68
2021/11/05 10:01:10;;;;;;;2.53;1.27;;;7.40;99.90;;;;;;4973260;28;20089;-66
2021/11/05 10:03:37;;;;;;;2.72;1.83;;;7.30;99.90;;;;;;4973845;28;20089;-65
2021/11/05 10:06:18;;;;;;;4.50;1.10;;;7.30;99.90;;;;;;4972111;28;20117;-66
2021/11/05 10:08:51;;;;;;;4.30;1.38;;;7.30;99.90;;;;;;4968476;28;20140;-66
2021/11/05 10:11:28;;;;;;;4.30;1.67;;;7.30;99.90;;;;;;4970531;28;20108;-68
2021/11/05 10:13:57;;;;;;;2.53;2.03;;;7.30;99.90;;;;;;4972520;28;20433;-67
2021/11/05 10:16:26;;;;;;;2.42;1.40;;;7.30;99.90;;;;;;4956911;28;20082;-65
2021/11/05 10:19:07;;;;;;;1.95;1.30;;;7.30;99.90;;;;;;4966633;28;20089;-68
2021/11/05 10:21:40;;;;;;;4.97;1.38;;;7.30;99.90;;;;;;4944339;28;20066;-65
2021/11/05 10:24:21;;;;;;;3.72;1.48;;;7.30;99.90;;;;;;4945058;28;21529;-67
2021/11/05 10:26:49;;;;;;;2.45;1.63;;;7.30;99.90;;;;;;4947379;28;20063;-66
2021/11/05 10:29:31;;;;;;;1.52;1.42;;;7.30;99.90;;;;;;4939501;28;20047;-72
2021/11/05 10:32:08;;;;;;;4.28;0.98;;;7.40;99.90;;;;;;4947039;28;20032;-66
2021/11/05 10:34:49;;;;;;;1.83;1.15;;;7.40;99.90;;;;;;4944607;28;20047;-66
2021/11/05 10:37:32;;;;;;;2.45;0.98;;;7.40;99.90;;;;;;4943537;28;20043;-68
2021/11/05 10:40:00;;;;;;;2.50;1.08;;;7.40;99.90;;;;;;4944502;28;20083;-66
2021/11/05 10:42:45;;;;;;;1.98;1.02;;;7.40;99.90;;;;;;4945262;28;20047;-66
2021/11/05 10:45:17;;;;;;;3.33;1.27;;;7.50;99.90;;;;;;4945862;28;20132;-68
2021/11/05 10:47:53;;;;;;;1.45;1.10;;;7.50;99.90;;;;;;4943944;28;20126;-66
2021/11/05 10:50:26;;;;;;;1.70;1.08;;;7.50;99.90;;;;;;4946165;28;20039;-67
2021/11/05 10:53:10;;;;;;;1.02;0.93;;;7.50;99.90;;;;;;4942249;28;20078;-66
2021/11/05 10:55:52;;;;;;;3.35;0.75;;;7.50;99.90;;;;;;4963845;28;20047;-67
2021/11/05 10:58:22;;;;;;;3.08;1.25;;;7.50;99.90;;;;;;4953824;28;20193;-66
2021/11/05 11:00:53;;;;;;;3.63;1.48;;;7.50;99.90;;;;;;4950444;28;20109;-66
2021/11/05 11:03:35;;;;;;;2.33;1.35;;;7.40;99.90;;;;;;4946499;28;20142;-66
2021/11/05 11:06:04;;;;;;;1.30;1.15;;;7.40;99.90;;;;;;4951085;28;20102;-72
2021/11/05 11:08:40;;;;;;;1.67;1.08;;;7.40;99.90;;;;;;4947860;28;20090;-66
2021/11/05 11:11:24;;;;;;;0.85;0.85;;;7.40;99.90;;;;;;4961306;28;20070;-69
2021/11/05 11:14:18;;;;;;;2.30;0.85;;;7.40;99.90;;;;;;4956429;28;20055;-67
2021/11/05 11:16:49;;;;;;;1.92;1.63;;;7.40;99.90;;;;;;4966094;28;20537;-68
2021/11/05 11:19:19;;;;;;;1.23;0.80;;;7.30;99.90;;;;;;4971920;28;20058;-67
2021/11/05 11:21:46;;;;;;;1.73;1.15;;;7.30;99.90;;;;;;4963754;28;20516;-69
2021/11/05 11:24:22;;;;;;;1.42;1.33;;;7.30;99.90;;;;;;4970294;28;20475;-67
2021/11/05 11:26:51;;;;;;;1.90;1.10;;;7.30;99.90;;;;;;4973505;28;20054;-67
2021/11/05 11:29:22;;;;;;;1.38;1.27;;;7.40;99.90;;;;;;4969073;28;20126;-68
2021/11/05 11:31:52;;;;;;;1.98;1.30;;;7.40;99.90;;;;;;4972277;28;20070;-66
2021/11/05 11:34:19;;;;;;;1.63;0.90;;;7.40;99.90;;;;;;4970245;28;20137;-67
2021/11/05 11:37:07;;;;;;;1.60;1.13;;;7.40;99.90;;;;;;4969351;28;20065;-68
2021/11/05 11:39:34;;;;;;;4.22;0.93;;;7.40;99.90;;;;;;4971940;28;20054;-66
2021/11/05 11:42:04;;;;;;;1.10;1.00;;;7.50;99.90;;;;;;4968452;28;20054;-66
2021/11/05 11:44:35;;;;;;;3.07;1.20;;;7.50;99.90;;;;;;4956133;28;20061;-66
2021/11/05 11:47:09;;;;;;;1.48;1.17;;;7.40;99.90;;;;;;4899468;28;20377;-67
2021/11/05 11:49:39;;;;;;;2.55;1.10;;;7.40;99.90;;;;;;4902484;28;20054;-66
2021/11/05 11:52:18;;;;;;;2.38;0.80;;;7.50;99.90;;;;;;4919765;28;20045;-65
2021/11/05 11:54:54;;;;;;;1.05;0.80;;;7.50;99.90;;;;;;4898465;28;20057;-67
2021/11/05 11:57:32;;;;;;;0.95;0.70;;;7.50;99.90;;;;;;4912210;28;20130;-67
2021/11/05 12:00:20;;;;;;;4.05;1.02;;;7.50;99.90;;;;;;4919196;28;20046;-67
2021/11/05 12:03:02;;;;;;;4.85;0.80;;;7.40;99.90;;;;;;4918905;28;20385;-73
2021/11/05 12:05:29;;;;;;;5.82;0.90;;;7.40;99.90;;;;;;4921505;28;20390;-66
2021/11/05 12:08:18;;;;;;;1.70;0.88;;;7.40;99.90;;;;;;4939441;28;20221;-65
2021/11/05 12:10:56;;;;;;;1.98;0.80;;;7.40;99.90;;;;;;4944602;28;20085;-64
2021/11/05 12:13:35;;;;;;;3.05;0.55;;;7.40;99.90;;;;;;4942225;28;20050;-64
2021/11/05 12:16:13;;;;;;;3.20;1.15;;;7.40;99.90;;;;;;4941450;28;20038;-70
2021/11/05 12:19:02;;;;;;;1.10;0.70;;;7.40;99.90;;;;;;4924675;28;20067;-68
2021/11/05 12:21:37;;;;;;;1.10;0.40;;;7.40;99.90;;;;;;4923160;28;21063;-66
2021/11/05 12:26:44;;;;;;;1.17;0.60;;;7.40;99.90;;;;;;4925037;28;22365;-66
2021/11/05 12:29:42;;;;;;;0.85;0.47;;;7.40;99.90;;;;;;4945464;28;20148;-66
2021/11/05 12:32:15;;;;;;;1.23;0.68;;;7.40;99.90;;;;;;4944322;28;20066;-66
2021/11/05 12:35:06;;;;;;;1.23;0.80;;;7.40;99.90;;;;;;4935080;28;20047;-71
2021/11/05 12:37:40;;;;;;;0.45;0.20;;;7.40;99.90;;;;;;4941130;28;20091;-65
2021/11/05 12:40:54;;;;;;;3.03;0.43;;;7.40;99.90;;;;;;4931455;28;20165;-68
2021/11/05 12:43:21;;;;;;;2.65;0.70;;;7.40;99.90;;;;;;4916482;28;20112;-70
2021/11/05 12:46:12;;;;;;;1.75;0.68;;;7.40;99.90;;;;;;4922286;28;20423;-67
2021/11/05 12:48:40;;;;;;;2.13;0.63;;;7.40;99.90;;;;;;4917084;28;20075;-66
2021/11/05 12:51:41;;;;;;;1.25;0.93;;;7.40;99.90;;;;;;4918493;28;20148;-70
2021/11/05 12:54:32;;;;;;;0.77;0.40;;;7.30;99.90;;;;;;4918598;28;20058;-70
2021/11/05 12:56:59;;;;;;;1.17;0.73;;;7.30;99.90;;;;;;4918156;28;20086;-66
2021/11/05 12:59:29;;;;;;;0.50;0.50;;;7.20;99.90;;;;;;4918702;28;20533;-68
2021/11/05 13:02:01;;;;;;;0.55;0.40;;;7.20;99.90;;;;;;4920005;28;20115;-66
2021/11/05 13:04:31;;;;;;;2.22;0.70;;;7.20;99.90;;;;;;4905750;28;20106;-70
2021/11/05 13:07:04;;;;;;;2.50;1.13;;;7.30;99.90;;;;;;4910622;28;20074;-66
2021/11/05 13:09:42;;;;;;;4.20;0.43;;;7.20;99.90;;;;;;4930026;28;20058;-67
2021/11/05 13:12:10;;;;;;;1.70;0.60;;;7.20;99.90;;;;;;4929958;28;20125;-66